Time;durP1;ratioP1;P1;durP2;ratioP2;P2;SDS_P1;SDS_P2;PMS_P1;PMS_P2;Temp;Humidity;BMP_temperature;BMP_pressure;BME280_temperature;BME280_humidity;BME280_pressure;Samples;Min_cycle;Max_cycle;Signal;HPM_P1;HPM_P2
2022/06/07 00:01:07;;;;;;;6.97;2.50;;;;;;;19.48;56.61;99244.22;1685172;83;21156;-70
2022/06/07 00:03:34;;;;;;;2.90;2.52;;;;;;;19.46;56.70;99246.33;1692361;82;21532;-70
2022/06/07 00:06:01;;;;;;;3.02;2.70;;;;;;;19.43;56.82;99240.05;1694314;82;21026;-70
2022/06/07 00:08:31;;;;;;;2.72;2.52;;;;;;;19.40;56.90;99239.98;1698276;82;20911;-69
2022/06/07 00:10:57;;;;;;;2.95;2.55;;;;;;;19.36;57.00;99240.14;1703916;83;20978;-67
2022/06/07 00:13:26;;;;;;;2.62;2.52;;;;;;;19.32;57.06;99230.85;1709868;82;22711;-69
2022/06/07 00:15:54;;;;;;;2.65;2.45;;;;;;;19.30;57.09;99230.27;1685275;83;21544;-69
2022/06/07 00:18:20;;;;;;;2.60;2.20;;;;;;;19.29;57.18;99228.64;1713101;83;20939;-70
2022/06/07 00:20:48;;;;;;;2.75;2.42;;;;;;;19.28;57.27;99229.69;1698786;82;21010;-70
2022/06/07 00:23:16;;;;;;;2.47;2.27;;;;;;;19.28;57.36;99227.52;1685576;83;20914;-70
2022/06/07 00:25:47;;;;;;;2.77;2.37;;;;;;;19.29;57.41;99225.13;1695193;82;20947;-69
2022/06/07 00:28:14;;;;;;;2.65;2.45;;;;;;;19.29;57.44;99221.08;1685511;83;20915;-69
2022/06/07 00:30:43;;;;;;;4.80;2.40;;;;;;;19.30;57.40;99218.13;1704013;82;20935;-69
2022/06/07 00:33:09;;;;;;;2.37;2.25;;;;;;;19.33;57.30;99220.38;1685500;83;21485;-69
2022/06/07 00:35:36;;;;;;;6.22;2.30;;;;;;;19.34;57.24;99215.28;1695072;82;20974;-69
2022/06/07 00:38:03;;;;;;;2.92;2.72;;;;;;;19.34;57.23;99213.94;1713127;83;21170;-69
2022/06/07 00:40:30;;;;;;;2.42;2.22;;;;;;;19.33;57.20;99217.67;1712806;83;20852;-69
2022/06/07 00:42:57;;;;;;;2.67;2.47;;;;;;;19.31;57.24;99213.05;1699722;82;21002;-70
2022/06/07 00:45:24;;;;;;;4.05;2.50;;;;;;;19.29;57.33;99210.29;1685898;83;21013;-69
2022/06/07 00:47:51;;;;;;;2.92;2.72;;;;;;;19.27;57.45;99211.85;1685546;83;21006;-70
2022/06/07 00:50:41;;;;;;;4.17;2.65;;;;;;;19.23;57.58;99209.34;1693761;82;21292;-69
2022/06/07 00:53:23;;;;;;;2.40;2.30;;;;;;;19.21;57.63;99210.10;1690733;82;20915;-70
2022/06/07 00:55:52;;;;;;;2.60;2.40;;;;;;;19.18;57.69;99204.34;1712625;82;20911;-70
2022/06/07 00:58:19;;;;;;;3.00;2.55;;;;;;;19.14;57.82;99202.63;1685333;83;21127;-69
2022/06/07 01:00:47;;;;;;;7.67;2.55;;;;;;;19.11;57.93;99207.95;1685430;83;20966;-69
2022/06/07 01:03:15;;;;;;;2.47;2.37;;;;;;;19.11;57.98;99207.13;1685505;83;21170;-69
2022/06/07 01:05:43;;;;;;;2.40;2.12;;;;;;;19.11;57.85;99207.13;1690467;82;20946;-70
2022/06/07 01:10:57;;;;;;;2.95;2.65;;;;;;;19.11;57.67;99203.91;1658873;86;20996;-70
2022/06/07 01:13:31;;;;;;;2.67;2.47;;;;;;;19.10;57.61;99206.33;1668535;86;20996;-70
2022/06/07 01:16:02;;;;;;;2.80;2.50;;;;;;;19.11;57.62;99207.13;1657903;84;21182;-70
2022/06/07 01:18:31;;;;;;;2.83;2.62;;;;;;;19.13;57.63;99201.00;1644997;84;21054;-70
2022/06/07 01:21:24;;;;;;;3.00;2.40;;;;;;;19.11;57.56;99201.73;1642463;86;21537;-69
2022/06/07 01:23:52;;;;;;;4.17;2.37;;;;;;;19.11;57.50;99204.43;1641767;86;21553;-70
2022/06/07 01:26:21;;;;;;;3.05;2.58;;;;;;;19.09;57.43;99203.33;1653112;84;21023;-70
2022/06/07 01:28:48;;;;;;;5.70;2.87;;;;;;;19.08;57.45;99207.62;1656913;84;21186;-70
2022/06/07 01:31:16;;;;;;;2.67;2.47;;;;;;;19.05;57.61;99206.73;1651695;84;20998;-69
2022/06/07 01:33:44;;;;;;;2.77;2.42;;;;;;;19.00;57.80;99202.55;1642464;86;21087;-69
2022/06/07 01:36:14;;;;;;;2.70;2.50;;;;;;;18.99;57.94;99206.30;1651138;84;21455;-69
2022/06/07 01:38:44;;;;;;;3.08;2.77;;;;;;;18.97;58.08;99204.36;1636972;85;20875;-69
2022/06/07 01:43:58;;;;;;;4.00;2.87;;;;;;;18.92;58.10;99193.45;1689931;82;20998;-69
2022/06/07 01:46:25;;;;;;;2.70;2.47;;;;;;;18.90;58.15;99197.70;1680482;82;21003;-70
2022/06/07 01:48:52;;;;;;;2.58;2.40;;;;;;;18.90;58.18;99194.22;1683212;84;21002;-70
2022/06/07 01:51:19;;;;;;;2.72;2.55;;;;;;;18.88;58.18;99194.95;1689973;82;21617;-70
2022/06/07 01:53:45;;;;;;;2.77;2.58;;;;;;;18.87;58.20;99198.72;1678301;84;21166;-70
2022/06/07 01:56:16;;;;;;;2.40;2.20;;;;;;;18.85;58.27;99190.84;1676956;82;21034;-69
2022/06/07 01:58:44;;;;;;;2.80;2.60;;;;;;;18.83;58.30;99186.73;1687972;82;21627;-69
2022/06/07 02:01:11;;;;;;;2.40;2.30;;;;;;;18.81;58.39;99184.80;1678289;84;21437;-69
2022/06/07 02:03:40;;;;;;;3.10;2.60;;;;;;;18.78;58.43;99186.08;1678373;84;21015;-69
2022/06/07 02:06:11;;;;;;;2.90;2.70;;;;;;;18.75;58.44;99187.88;1679606;82;21077;-70
2022/06/07 02:08:40;;;;;;;2.60;2.42;;;;;;;18.72;58.53;99181.60;1686956;82;21477;-68
2022/06/07 02:11:12;;;;;;;3.00;2.40;;;;;;;18.71;58.59;99181.84;1653701;84;20944;-69
2022/06/07 02:13:42;;;;;;;3.22;2.77;;;;;;;18.73;58.60;99185.13;1678182;84;21065;-69
2022/06/07 02:16:09;;;;;;;2.72;2.52;;;;;;;18.71;58.69;99185.37;1678260;84;20990;-69
2022/06/07 02:18:36;;;;;;;2.77;2.58;;;;;;;18.73;58.68;99179.73;1683568;82;21162;-68
2022/06/07 02:21:06;;;;;;;2.67;2.47;;;;;;;18.73;58.58;99179.73;1676218;84;21010;-69
2022/06/07 02:23:34;;;;;;;3.33;2.55;;;;;;;18.73;58.48;99177.04;1676810;82;21010;-70
2022/06/07 02:26:05;;;;;;;2.70;2.50;;;;;;;18.71;58.48;99178.63;1670686;82;21030;-69
2022/06/07 02:28:35;;;;;;;2.52;2.33;;;;;;;18.72;58.49;99178.11;1678890;82;21082;-70
2022/06/07 02:31:02;;;;;;;2.55;2.35;;;;;;;18.71;58.44;99177.80;1673053;84;21711;-69
2022/06/07 02:33:29;;;;;;;2.80;2.60;;;;;;;18.70;58.42;99183.71;1670692;84;20987;-69
2022/06/07 02:35:56;;;;;;;3.55;2.35;;;;;;;18.70;58.45;99185.58;1670752;84;21060;-70
2022/06/07 02:38:23;;;;;;;2.65;2.40;;;;;;;18.68;58.46;99183.65;1670629;84;21505;-70
2022/06/07 02:40:50;;;;;;;2.25;2.15;;;;;;;18.67;58.48;99183.34;1677182;82;21066;-70
2022/06/07 02:43:19;;;;;;;7.78;2.58;;;;;;;18.68;58.43;99182.30;1670697;84;21240;-70
2022/06/07 02:45:46;;;;;;;2.47;2.37;;;;;;;18.69;58.44;99186.13;1670562;84;20920;-70
2022/06/07 02:48:13;;;;;;;2.85;2.25;;;;;;;18.71;58.45;99185.89;1670754;84;21567;-71
2022/06/07 02:50:41;;;;;;;2.27;2.05;;;;;;;18.74;58.45;99185.44;1682525;82;21002;-69
2022/06/07 02:53:08;;;;;;;3.42;2.65;;;;;;;18.78;58.41;99184.73;1677559;84;21034;-69
2022/06/07 02:55:35;;;;;;;3.02;2.35;;;;;;;18.83;58.44;99182.69;1670641;84;21157;-68
2022/06/07 02:58:04;;;;;;;2.70;2.50;;;;;;;18.85;58.43;99192.73;1640937;86;21055;-70
2022/06/07 03:00:31;;;;;;;2.65;2.45;;;;;;;18.87;58.48;99186.06;1624504;84;21770;-70
2022/06/07 03:02:59;;;;;;;3.90;2.70;;;;;;;18.93;58.42;99183.77;1655481;84;21038;-70
2022/06/07 03:05:26;;;;;;;2.08;1.98;;;;;;;18.99;58.32;99186.91;1642419;86;21059;-70
2022/06/07 03:07:55;;;;;;;2.58;2.17;;;;;;;19.09;57.90;99183.63;1642223;86;21796;-71
2022/06/07 03:10:21;;;;;;;2.62;2.35;;;;;;;19.18;57.57;99173.34;1649629;84;20980;-70
2022/06/07 03:12:50;;;;;;;3.77;2.40;;;;;;;19.29;57.28;99176.05;1634310;85;21058;-70
2022/06/07 03:15:19;;;;;;;2.70;2.50;;;;;;;19.42;57.11;99174.48;1679024;82;21062;-71
2022/06/07 03:17:46;;;;;;;5.03;2.80;;;;;;;19.56;57.42;99169.68;1670654;84;21077;-70
2022/06/07 03:20:15;;;;;;;2.62;2.42;;;;;;;19.68;57.23;99175.91;1670622;84;21271;-69
2022/06/07 03:22:42;;;;;;;3.08;2.33;;;;;;;19.78;57.00;99172.60;1682752;82;21021;-70
2022/06/07 03:25:11;;;;;;;3.67;2.27;;;;;;;19.92;56.55;99176.70;1671256;82;21010;-69
2022/06/07 03:27:39;;;;;;;3.02;2.60;;;;;;;20.11;55.79;99176.81;1674127;82;20967;-70
2022/06/07 03:30:09;;;;;;;3.25;2.58;;;;;;;20.33;55.09;99173.80;1670763;84;20982;-69
2022/06/07 03:32:38;;;;;;;2.70;2.50;;;;;;;20.52;54.58;99167.12;1635940;86;21277;-70
2022/06/07 03:35:08;;;;;;;2.45;2.25;;;;;;;20.75;53.94;99177.82;1668422;86;20952;-68
2022/06/07 03:37:37;;;;;;;2.83;2.12;;;;;;;21.06;53.46;99179.23;1668532;86;21064;-71
2022/06/07 03:40:08;;;;;;;2.40;2.20;;;;;;;21.43;52.84;99173.59;1654265;84;21560;-70
2022/06/07 03:42:36;;;;;;;4.55;2.50;;;;;;;21.90;51.91;99171.31;1653614;84;21030;-68
2022/06/07 03:45:04;;;;;;;2.35;2.12;;;;;;;22.39;50.90;99165.97;1642660;86;21821;-70
2022/06/07 03:47:32;;;;;;;3.08;2.77;;;;;;;22.82;50.06;99165.90;1642584;86;21434;-70
2022/06/07 03:50:00;;;;;;;3.45;2.55;;;;;;;23.28;49.17;99162.50;1642549;86;21490;-68
2022/06/07 03:52:27;;;;;;;2.77;1.98;;;;;;;23.71;48.46;99156.05;1653545;84;21701;-68
2022/06/07 03:54:56;;;;;;;3.92;2.30;;;;;;;24.16;47.41;99154.13;1650098;84;21541;-69
2022/06/07 03:57:25;;;;;;;2.67;2.47;;;;;;;24.53;46.53;99157.48;1642588;86;22142;-70
2022/06/07 03:59:53;;;;;;;3.85;2.05;;;;;;;24.89;45.54;99151.61;1642203;86;20976;-69
2022/06/07 04:02:20;;;;;;;2.25;2.10;;;;;;;25.29;44.45;99157.58;1642570;86;21668;-71
2022/06/07 04:04:48;;;;;;;2.40;2.20;;;;;;;25.69;43.38;99149.94;1657683;84;20996;-68
2022/06/07 04:10:04;;;;;;;2.52;2.05;;;;;;;26.20;41.73;99146.53;1660812;86;21180;-69
2022/06/07 04:12:34;;;;;;;3.62;2.10;;;;;;;26.40;40.68;99148.34;1667927;86;20973;-70
2022/06/07 04:15:00;;;;;;;2.90;2.20;;;;;;;26.57;40.27;99148.23;1671926;84;21002;-70
2022/06/07 04:17:27;;;;;;;3.25;2.05;;;;;;;26.77;39.97;99151.42;1644788;84;20979;-69
2022/06/07 04:19:56;;;;;;;2.30;2.12;;;;;;;27.00;39.77;99148.52;1641054;86;21537;-70
2022/06/07 04:22:23;;;;;;;4.25;2.25;;;;;;;27.24;38.90;99155.70;1655771;84;21255;-70
2022/06/07 04:24:52;;;;;;;2.02;1.85;;;;;;;27.50;38.44;99159.04;1655261;85;20982;-71
2022/06/07 04:27:20;;;;;;;3.02;2.12;;;;;;;27.81;37.86;99144.50;1655549;85;21081;-70
2022/06/07 04:29:48;;;;;;;2.08;1.98;;;;;;;28.09;37.30;99152.67;1666602;83;21046;-70
2022/06/07 04:32:16;;;;;;;1.82;1.72;;;;;;;28.50;36.45;99154.31;1662185;83;21569;-69
2022/06/07 04:34:44;;;;;;;2.52;1.77;;;;;;;28.92;35.77;99149.89;1655668;85;21251;-71
2022/06/07 04:37:12;;;;;;;2.83;1.80;;;;;;;29.33;34.78;99148.96;1655454;85;21027;-70
2022/06/07 04:39:40;;;;;;;2.40;1.70;;;;;;;29.49;34.05;99148.72;1656868;85;20968;-70
2022/06/07 04:42:10;;;;;;;3.40;1.57;;;;;;;29.58;33.89;99154.56;1681484;83;20892;-70
2022/06/07 04:44:48;;;;;;;1.70;1.60;;;;;;;29.98;33.05;99157.67;1680381;85;20959;-69
2022/06/07 04:47:15;;;;;;;3.20;1.70;;;;;;;30.52;31.72;99154.36;1681819;85;21102;-72
2022/06/07 04:49:42;;;;;;;1.95;1.62;;;;;;;31.14;30.88;99152.64;1682010;85;20872;-70
2022/06/07 04:52:09;;;;;;;2.35;1.70;;;;;;;31.59;30.09;99148.50;1673256;83;21462;-68
2022/06/07 04:54:39;;;;;;;1.75;1.65;;;;;;;32.10;29.50;99147.91;1666975;84;21067;-71
2022/06/07 04:57:06;;;;;;;3.47;2.10;;;;;;;32.61;28.66;99149.45;1647731;85;21525;-69
2022/06/07 04:59:34;;;;;;;3.55;2.17;;;;;;;33.05;27.86;99146.15;1647644;85;21273;-70
2022/06/07 05:02:02;;;;;;;3.22;2.33;;;;;;;33.32;27.30;99147.17;1659461;84;20882;-70
2022/06/07 05:04:30;;;;;;;2.02;1.80;;;;;;;33.51;26.81;99149.79;1668037;84;20962;-70
2022/06/07 05:07:00;;;;;;;2.42;2.15;;;;;;;33.78;26.37;99152.75;1662842;84;21030;-70
2022/06/07 05:09:34;;;;;;;5.47;1.90;;;;;;;34.10;25.82;99156.27;1663442;84;21002;-69
2022/06/07 05:12:04;;;;;;;2.10;1.42;;;;;;;33.85;25.95;99155.79;1690683;83;21112;-70
2022/06/07 05:14:32;;;;;;;1.72;1.60;;;;;;;34.02;26.15;99152.16;1683703;83;21046;-70
2022/06/07 05:16:59;;;;;;;2.15;1.77;;;;;;;34.37;24.97;99156.92;1695030;83;20991;-69
2022/06/07 05:19:33;;;;;;;1.40;1.30;;;;;;;34.68;24.76;99156.02;1677489;83;20950;-69
2022/06/07 05:22:01;;;;;;;3.75;1.52;;;;;;;35.01;23.74;99154.14;1658142;84;21130;-67
2022/06/07 05:24:30;;;;;;;1.60;1.35;;;;;;;35.08;24.11;99153.61;1698230;82;21893;-71
2022/06/07 05:26:59;;;;;;;1.50;1.35;;;;;;;34.95;23.85;99143.05;1695040;82;20954;-70
2022/06/07 05:29:44;;;;;;;2.05;1.27;;;;;;;34.83;24.00;99148.52;1689067;81;20998;-70
2022/06/07 05:32:11;;;;;;;3.20;1.37;;;;;;;34.93;23.31;99148.11;1712834;82;20951;-73
2022/06/07 05:34:40;;;;;;;1.32;1.25;;;;;;;34.90;23.12;99145.20;1685417;83;21006;-68
2022/06/07 05:37:07;;;;;;;2.85;1.50;;;;;;;34.96;23.33;99159.88;1703056;82;21544;-70
2022/06/07 05:39:33;;;;;;;1.30;1.20;;;;;;;35.17;23.02;99148.83;1711961;82;20971;-69
2022/06/07 05:42:02;;;;;;;1.87;1.32;;;;;;;35.24;22.82;99149.07;1715933;82;21101;-70
2022/06/07 05:44:29;;;;;;;1.40;1.25;;;;;;;35.71;22.54;99135.16;1714047;82;21066;-70
2022/06/07 05:46:56;;;;;;;1.25;1.15;;;;;;;36.17;21.67;99146.38;1693044;82;21102;-69
2022/06/07 05:49:28;;;;;;;2.80;1.05;;;;;;;36.33;21.31;99139.56;1686674;82;21170;-71
2022/06/07 05:52:01;;;;;;;1.57;1.35;;;;;;;36.42;21.41;99139.66;1696601;82;21677;-69
2022/06/07 05:54:32;;;;;;;1.30;1.20;;;;;;;36.76;21.37;99141.14;1690768;82;20998;-69
2022/06/07 05:56:59;;;;;;;1.98;1.10;;;;;;;37.37;20.56;99140.89;1698844;82;21460;-68
2022/06/07 05:59:26;;;;;;;2.75;1.32;;;;;;;37.57;20.02;99143.45;1686733;82;21086;-71
2022/06/07 06:01:53;;;;;;;2.70;1.20;;;;;;;37.63;20.24;99146.20;1697168;82;21526;-71
2022/06/07 06:04:24;;;;;;;1.80;1.27;;;;;;;37.90;19.70;99138.98;1693975;82;21117;-71
2022/06/07 06:06:50;;;;;;;1.07;1.05;;;;;;;38.09;19.49;99140.44;1699154;82;21010;-69
2022/06/07 06:12:03;;;;;;;1.52;1.30;;;;;;;38.78;18.89;99148.62;1693106;82;20970;-69
2022/06/07 06:14:36;;;;;;;1.70;1.50;;;;;;;38.70;18.77;99144.05;1631337;83;21584;-68
2022/06/07 06:17:04;;;;;;;3.33;1.35;;;;;;;38.49;18.80;99146.34;1641370;86;21613;-70
2022/06/07 06:19:33;;;;;;;1.60;1.40;;;;;;;38.17;19.29;99146.98;1641369;86;21039;-72
2022/06/07 06:22:02;;;;;;;1.55;1.45;;;;;;;37.76;19.49;99140.55;1632204;86;21092;-70
2022/06/07 06:24:29;;;;;;;1.92;1.40;;;;;;;37.78;19.47;99152.12;1681035;85;20951;-70
2022/06/07 06:26:58;;;;;;;1.87;1.20;;;;;;;37.61;19.41;99143.55;1681462;85;21832;-70
2022/06/07 06:29:26;;;;;;;1.20;1.20;;;;;;;37.78;19.55;99141.03;1673083;83;21019;-70
2022/06/07 06:31:54;;;;;;;1.45;1.30;;;;;;;37.93;19.41;99138.85;1666040;83;21030;-69
2022/06/07 06:34:21;;;;;;;1.47;1.37;;;;;;;37.81;19.34;99133.34;1654925;85;21051;-72
2022/06/07 06:36:48;;;;;;;2.00;1.50;;;;;;;38.19;19.01;99132.16;1680486;85;21079;-72
2022/06/07 06:39:15;;;;;;;2.02;1.32;;;;;;;38.46;19.11;99130.43;1653749;85;21276;-68
2022/06/07 06:41:46;;;;;;;1.57;1.47;;;;;;;38.71;19.44;99127.59;1680517;83;21142;-70
2022/06/07 06:44:13;;;;;;;2.05;1.20;;;;;;;39.07;18.47;99142.48;1670411;83;21180;-69
2022/06/07 06:46:44;;;;;;;2.17;1.35;;;;;;;39.30;17.94;99132.23;1662448;83;21552;-70
2022/06/07 06:49:13;;;;;;;1.45;1.35;;;;;;;39.46;17.75;99133.52;1667320;83;21160;-71
2022/06/07 06:51:41;;;;;;;2.10;1.10;;;;;;;39.84;17.32;99134.04;1629885;85;21604;-71
2022/06/07 06:54:12;;;;;;;1.22;1.12;;;;;;;39.81;17.09;99131.99;1669301;84;20942;-69
2022/06/07 06:56:40;;;;;;;2.52;1.50;;;;;;;39.84;17.25;99132.03;1678463;84;21017;-71
2022/06/07 06:59:09;;;;;;;1.30;1.30;;;;;;;39.83;17.29;99126.27;1679054;82;20986;-71
2022/06/07 07:01:38;;;;;;;1.02;1.02;;;;;;;39.25;17.48;99130.34;1715068;82;21069;-75
2022/06/07 07:04:09;;;;;;;1.50;1.40;;;;;;;38.82;18.26;99136.40;1682352;82;21247;-72
2022/06/07 07:06:37;;;;;;;1.42;1.25;;;;;;;39.25;17.69;99127.55;1678918;84;21174;-69
2022/06/07 07:09:07;;;;;;;3.45;1.40;;;;;;;39.73;17.48;99124.11;1678968;84;21076;-69
2022/06/07 07:11:47;;;;;;;4.10;1.45;;;;;;;40.28;17.06;99120.44;1689586;82;21021;-70
2022/06/07 07:14:16;;;;;;;1.67;1.57;;;;;;;40.87;16.36;99116.87;1685105;82;21069;-69
2022/06/07 07:16:50;;;;;;;2.60;1.52;;;;;;;40.66;16.80;99117.41;1685701;84;21129;-69
2022/06/07 07:19:20;;;;;;;6.05;1.85;;;;;;;40.39;16.77;99121.37;1660825;85;20948;-69
2022/06/07 07:21:50;;;;;;;3.80;1.40;;;;;;;40.56;16.92;99120.86;1649625;85;20968;-68
2022/06/07 07:24:21;;;;;;;1.22;1.12;;;;;;;40.57;16.29;99132.23;1635013;85;20992;-69
2022/06/07 07:26:50;;;;;;;1.30;1.20;;;;;;;40.67;16.05;99121.81;1637142;86;20984;-68
2022/06/07 07:29:20;;;;;;;1.67;1.30;;;;;;;40.35;16.22;99122.73;1652085;84;21192;-73
2022/06/07 07:31:48;;;;;;;2.67;1.52;;;;;;;40.28;16.38;99123.22;1622492;86;21599;-72
2022/06/07 07:34:18;;;;;;;1.70;1.20;;;;;;;40.60;16.08;99130.06;1637932;86;21557;-74
2022/06/07 07:36:49;;;;;;;3.42;1.50;;;;;;;40.74;15.80;99119.11;1644037;84;21019;-74
2022/06/07 07:39:18;;;;;;;1.30;1.20;;;;;;;40.97;15.67;99119.02;1649364;84;21534;-75
2022/06/07 07:41:48;;;;;;;2.05;1.10;;;;;;;40.94;15.22;99115.00;1631029;86;21377;-74
2022/06/07 07:44:16;;;;;;;1.40;1.30;;;;;;;40.57;15.31;99119.70;1647554;86;20991;-74
2022/06/07 07:46:47;;;;;;;2.20;1.37;;;;;;;40.97;15.35;99111.45;1658498;84;20995;-77
2022/06/07 07:49:17;;;;;;;1.10;1.00;;;;;;;41.04;15.64;99114.32;1643190;84;21042;-75
2022/06/07 07:51:48;;;;;;;4.60;1.70;;;;;;;41.07;15.23;99119.73;1644699;84;21080;-74
2022/06/07 07:54:20;;;;;;;1.05;1.00;;;;;;;40.74;15.20;99112.72;1646654;84;22153;-76
2022/06/07 07:56:46;;;;;;;1.55;1.20;;;;;;;41.08;15.63;99111.58;1651688;84;20967;-78
2022/06/07 07:59:16;;;;;;;1.40;1.20;;;;;;;41.34;15.68;99119.06;1644769;84;21034;-71
2022/06/07 08:01:42;;;;;;;0.90;0.90;;;;;;;41.15;15.32;99120.83;1648514;84;20972;-75
2022/06/07 08:04:10;;;;;;;2.35;1.32;;;;;;;41.21;15.08;99122.10;1658419;84;21051;-75
2022/06/07 08:06:40;;;;;;;1.30;1.20;;;;;;;41.04;14.80;99122.69;1651145;86;21168;-74
2022/06/07 08:09:09;;;;;;;1.40;1.30;;;;;;;40.74;15.31;99119.11;1637307;86;21525;-75
2022/06/07 08:11:37;;;;;;;2.40;1.00;;;;;;;41.08;15.25;99127.73;1637258;86;20948;-76
2022/06/07 08:14:06;;;;;;;1.15;1.15;;;;;;;41.21;14.84;99119.89;1637317;86;20964;-74
2022/06/07 08:16:33;;;;;;;2.02;1.50;;;;;;;40.53;15.12;99125.80;1637306;86;20983;-74
2022/06/07 08:19:01;;;;;;;2.25;1.10;;;;;;;39.43;16.36;99126.72;1630694;86;21501;-75
2022/06/07 08:21:27;;;;;;;1.80;1.00;;;;;;;39.82;16.17;99125.23;1630601;86;21538;-75
2022/06/07 08:23:55;;;;;;;1.35;1.12;;;;;;;40.18;15.67;99116.91;1658861;83;21022;-75
2022/06/07 08:26:23;;;;;;;1.32;1.22;;;;;;;39.77;15.99;99119.98;1685683;83;21078;-74
2022/06/07 08:28:50;;;;;;;3.50;1.00;;;;;;;39.16;16.65;99118.63;1685674;83;20895;-73
2022/06/07 08:31:20;;;;;;;2.35;1.10;;;;;;;38.90;16.88;99122.09;1685730;83;21886;-76
2022/06/07 08:39:17;;;;;;;1.98;0.95;;;;;;;39.90;15.98;99112.45;1713530;83;22153;-74
2022/06/07 08:42:01;;;;;;;1.75;0.98;;;;;;;41.05;14.54;99115.94;1688699;83;21575;-75
2022/06/07 08:44:39;;;;;;;1.22;1.12;;;;;;;41.57;13.80;99110.72;1706788;83;22234;-75
2022/06/07 08:47:48;;;;;;;0.80;0.80;;;;;;;41.79;14.57;99107.56;1709584;83;20946;-74
2022/06/07 08:50:28;;;;;;;1.22;1.12;;;;;;;42.50;14.15;99109.48;1712084;83;20966;-74
2022/06/07 08:53:01;;;;;;;1.70;1.22;;;;;;;43.13;13.62;99104.17;1663429;85;21543;-75
2022/06/07 08:55:42;;;;;;;2.80;0.98;;;;;;;43.06;13.58;99113.96;1685727;83;21519;-75
2022/06/07 08:58:19;;;;;;;2.10;1.37;;;;;;;42.33;14.28;99100.59;1684561;83;21165;-74
2022/06/07 09:00:58;;;;;;;1.00;1.00;;;;;;;42.94;14.16;99100.34;1693472;83;21583;-75
2022/06/07 09:03:44;;;;;;;2.15;1.12;;;;;;;43.80;13.42;99090.34;1685801;83;21010;-76
2022/06/07 09:06:26;;;;;;;1.87;0.98;;;;;;;44.54;12.66;99085.22;1685651;83;20947;-74
2022/06/07 09:08:57;;;;;;;1.60;1.17;;;;;;;44.06;13.02;99093.31;1685164;83;21539;-75
2022/06/07 09:14:54;;;;;;;1.85;0.90;;;;;;;43.29;13.00;99099.02;1685630;83;21465;-76
2022/06/07 09:17:40;;;;;;;1.35;1.10;;;;;;;43.98;12.73;99083.31;1685699;83;20895;-75
2022/06/07 09:20:14;;;;;;;1.60;1.05;;;;;;;42.99;12.96;99095.17;1685650;83;20962;-75
2022/06/07 09:23:01;;;;;;;2.12;1.10;;;;;;;42.41;13.41;99099.45;1685657;83;20902;-74
2022/06/07 09:25:34;;;;;;;1.40;1.10;;;;;;;42.32;13.39;99092.58;1684669;83;21188;-74
2022/06/07 09:28:03;;;;;;;1.60;1.10;;;;;;;41.66;13.84;99075.52;1685652;83;20943;-75
2022/06/07 09:30:42;;;;;;;1.10;1.10;;;;;;;42.11;14.37;99067.30;1685689;83;20883;-76
2022/06/07 09:33:27;;;;;;;3.83;1.17;;;;;;;42.46;14.27;99085.69;1685584;83;20970;-75
2022/06/07 09:36:00;;;;;;;2.12;0.80;;;;;;;41.42;14.80;99084.45;1685716;83;21010;-74
2022/06/07 09:38:39;;;;;;;2.05;0.90;;;;;;;40.34;15.19;99069.56;1685804;83;21216;-74
2022/06/07 09:41:37;;;;;;;1.00;0.95;;;;;;;40.59;15.29;99076.91;1713183;83;20943;-75
2022/06/07 09:44:34;;;;;;;2.10;0.98;;;;;;;41.55;14.29;99071.23;1685135;83;21437;-75
2022/06/07 09:47:15;;;;;;;;;;;;;;;42.83;13.74;99071.50;1715840;83;20970;-74
2022/06/07 09:49:46;;;;;;;3.52;0.90;;;;;;;43.38;12.88;99058.89;1713087;83;20447;-75
2022/06/07 09:52:31;;;;;;;0.90;0.90;;;;;;;43.58;12.96;99057.30;1712992;83;22044;-75
2022/06/07 09:55:07;;;;;;;;;;;;;;;42.94;13.27;99059.16;1696400;83;20947;-75
2022/06/07 09:57:41;;;;;;;1.95;1.25;;;;;;;41.03;14.42;99063.92;1713188;83;20121;-75
2022/06/07 10:00:22;;;;;;;2.72;1.27;;;;;;;39.42;15.71;99055.54;1713023;83;21038;-74
2022/06/07 10:03:03;;;;;;;1.25;1.17;;;;;;;37.96;16.80;99061.80;1707172;83;20995;-74
2022/06/07 10:05:39;;;;;;;1.20;1.20;;;;;;;37.02;17.83;99056.95;1713351;83;21159;-75
2022/06/07 10:08:38;;;;;;;1.25;1.07;;;;;;;36.06;18.88;99062.78;1693410;83;20990;-75
2022/06/07 10:11:20;;;;;;;2.62;1.07;;;;;;;35.07;19.91;99062.97;1685718;83;20986;-73
2022/06/07 10:14:08;;;;;;;2.45;1.40;;;;;;;34.21;20.62;99064.23;1685580;83;21520;-73
2022/06/07 10:16:55;;;;;;;0.93;0.90;;;;;;;33.67;21.14;99067.36;1685547;83;21029;-75
2022/06/07 10:19:46;;;;;;;1.00;1.00;;;;;;;33.21;21.60;99064.59;1685657;83;21297;-75
2022/06/07 10:22:39;;;;;;;1.52;1.12;;;;;;;32.78;22.44;99050.86;1691321;83;21496;-73
2022/06/07 10:25:14;;;;;;;2.65;1.05;;;;;;;32.53;22.37;99055.27;1689099;83;20961;-75
2022/06/07 10:28:00;;;;;;;1.63;0.90;;;;;;;32.41;22.41;99052.89;1717903;83;21450;-75
2022/06/07 10:30:56;;;;;;;2.37;1.17;;;;;;;32.35;22.59;99049.48;1718505;83;20982;-74
2022/06/07 10:33:55;;;;;;;1.52;1.30;;;;;;;32.30;22.67;99053.77;1717662;83;21017;-74
2022/06/07 10:36:42;;;;;;;3.02;1.20;;;;;;;31.94;23.14;99047.70;1694887;83;21060;-74
2022/06/07 10:39:26;;;;;;;1.67;1.27;;;;;;;31.55;23.91;99044.41;1690847;83;20895;-75
2022/06/07 10:42:25;;;;;;;1.30;1.20;;;;;;;31.56;23.95;99041.91;1691053;83;21571;-74
2022/06/07 10:45:19;;;;;;;1.50;1.40;;;;;;;31.56;24.32;99053.73;1690889;83;21009;-74
2022/06/07 10:48:17;;;;;;;2.98;1.27;;;;;;;31.55;23.98;99038.34;1713370;83;20962;-74
2022/06/07 10:50:53;;;;;;;;;;;;;;;31.49;23.95;99036.89;1712035;83;20895;-75
2022/06/07 10:53:29;;;;;;;;;;;;;;;31.20;23.97;99036.56;1721112;83;20120;-74
2022/06/07 10:56:24;;;;;;;1.95;1.20;;;;;;;30.91;24.63;99037.59;1718504;82;20764;-74
2022/06/07 10:58:53;;;;;;;1.07;1.00;;;;;;;30.73;24.82;99044.07;1718721;83;21060;-76
2022/06/07 11:01:37;;;;;;;1.22;1.17;;;;;;;30.56;25.42;99032.39;1718383;83;21150;-75
2022/06/07 11:10:21;;;;;;;1.00;0.98;;;;;;;30.00;26.18;99030.11;1718690;83;21504;-74
2022/06/07 11:13:17;;;;;;;1.67;1.10;;;;;;;30.06;25.82;99025.33;1717776;83;21536;-73
2022/06/07 11:16:01;;;;;;;4.30;1.30;;;;;;;30.15;25.96;99020.16;1695736;83;21805;-75
2022/06/07 11:18:29;;;;;;;2.58;1.25;;;;;;;30.24;25.72;99015.58;1690897;83;20954;-75
2022/06/07 11:21:08;;;;;;;1.37;1.27;;;;;;;30.28;25.58;99011.08;1690917;83;21005;-73
2022/06/07 11:23:46;;;;;;;1.60;1.05;;;;;;;30.29;25.97;99018.20;1690826;83;21087;-74
2022/06/07 11:26:17;;;;;;;1.60;1.50;;;;;;;30.09;26.32;99024.13;1692361;83;21394;-74
2022/06/07 11:28:52;;;;;;;1.92;1.10;;;;;;;29.89;27.10;99023.22;1692487;83;21225;-74
2022/06/07 11:31:36;;;;;;;2.17;1.30;;;;;;;29.69;27.30;99010.73;1690769;83;21012;-75
2022/06/07 11:34:26;;;;;;;1.22;1.12;;;;;;;29.59;26.82;99014.25;1697957;83;20867;-75
2022/06/07 11:37:15;;;;;;;1.45;1.35;;;;;;;29.47;27.05;99016.11;1718416;83;21073;-75
2022/06/07 11:39:56;;;;;;;1.35;1.20;;;;;;;29.30;27.10;99004.41;1709599;83;20999;-74
2022/06/07 11:42:36;;;;;;;1.45;1.40;;;;;;;29.13;27.28;99008.25;1718516;83;21135;-75
2022/06/07 11:45:20;;;;;;;3.72;1.45;;;;;;;29.00;28.10;98995.34;1698376;83;20897;-75
2022/06/07 11:48:11;;;;;;;2.02;1.42;;;;;;;29.03;27.76;98986.53;1690562;83;20990;-75
2022/06/07 11:51:15;;;;;;;1.25;1.20;;;;;;;29.01;28.51;98999.72;1709284;83;21002;-75
2022/06/07 11:53:57;;;;;;;1.17;1.07;;;;;;;28.92;27.94;98989.75;1699307;83;21014;-76
2022/06/07 11:56:40;;;;;;;2.08;1.12;;;;;;;28.82;28.18;98986.64;1718517;83;21103;-74
2022/06/07 11:59:25;;;;;;;2.62;1.10;;;;;;;28.71;28.24;98984.64;1689350;83;21062;-75
2022/06/07 12:02:06;;;;;;;1.57;1.02;;;;;;;28.64;28.50;98991.61;1690877;83;21598;-76
2022/06/07 12:04:48;;;;;;;1.27;1.15;;;;;;;28.60;28.43;98983.15;1690856;83;20930;-75
2022/06/07 12:07:22;;;;;;;1.75;1.00;;;;;;;28.57;27.97;98985.14;1692656;83;20942;-76
2022/06/07 12:09:58;;;;;;;1.90;1.10;;;;;;;28.56;28.17;98975.30;1718615;83;21207;-75
2022/06/07 12:12:31;;;;;;;1.47;1.37;;;;;;;28.59;28.63;98990.30;1718407;82;20958;-74
2022/06/07 12:15:10;;;;;;;2.87;1.90;;;;;;;28.60;27.92;98979.63;1718625;83;20959;-75
2022/06/07 12:17:39;;;;;;;2.22;1.20;;;;;;;28.59;28.08;98980.17;1715455;83;21010;-75
2022/06/07 12:20:07;;;;;;;2.27;1.30;;;;;;;28.59;27.63;98982.09;1646522;83;21058;-75
2022/06/07 12:22:41;;;;;;;1.17;1.00;;;;;;;28.55;27.90;98974.23;1692132;83;21861;-76
2022/06/07 12:25:18;;;;;;;3.10;1.25;;;;;;;28.50;27.86;98976.48;1716502;83;21532;-73